sensor_id;sensor_type;location;lat;lon;timestamp;temperature;humidity
47546;DHT22;50104;52.002;4.688;2024-02-04T00:00:17;10.80;95.70
47546;DHT22;50104;52.002;4.688;2024-02-04T00:05:18;10.80;95.70
47546;DHT22;50104;52.002;4.688;2024-02-04T00:10:19;10.80;95.70
47546;DHT22;50104;52.002;4.688;2024-02-04T00:15:20;10.80;95.60
47546;DHT22;50104;52.002;4.688;2024-02-04T00:20:21;10.80;95.60
47546;DHT22;50104;52.002;4.688;2024-02-04T00:25:22;10.90;95.60
47546;DHT22;50104;52.002;4.688;2024-02-04T00:30:23;10.90;95.60
47546;DHT22;50104;52.002;4.688;2024-02-04T00:35:24;10.90;95.60
47546;DHT22;50104;52.002;4.688;2024-02-04T00:40:26;10.90;95.60
47546;DHT22;50104;52.002;4.688;2024-02-04T00:45:27;10.90;95.60
47546;DHT22;50104;52.002;4.688;2024-02-04T00:50:27;10.90;95.60
47546;DHT22;50104;52.002;4.688;2024-02-04T00:55:29;10.90;95.60
47546;DHT22;50104;52.002;4.688;2024-02-04T01:00:30;10.90;95.60
47546;DHT22;50104;52.002;4.688;2024-02-04T01:05:31;11.00;95.60
47546;DHT22;50104;52.002;4.688;2024-02-04T01:10:32;11.00;95.50
47546;DHT22;50104;52.002;4.688;2024-02-04T01:15:32;11.00;95.30
47546;DHT22;50104;52.002;4.688;2024-02-04T01:20:33;11.00;95.20
47546;DHT22;50104;52.002;4.688;2024-02-04T01:26:08;11.00;95.10
47546;DHT22;50104;52.002;4.688;2024-02-04T01:31:09;11.00;95.00
47546;DHT22;50104;52.002;4.688;2024-02-04T01:36:10;11.00;94.90
47546;DHT22;50104;52.002;4.688;2024-02-04T01:41:11;11.00;95.00
47546;DHT22;50104;52.002;4.688;2024-02-04T01:46:11;11.00;95.00
47546;DHT22;50104;52.002;4.688;2024-02-04T01:51:14;11.00;94.90
47546;DHT22;50104;52.002;4.688;2024-02-04T01:56:17;11.00;94.90
47546;DHT22;50104;52.002;4.688;2024-02-04T02:01:18;10.90;94.90
47546;DHT22;50104;52.002;4.688;2024-02-04T02:06:20;10.90;95.00
47546;DHT22;50104;52.002;4.688;2024-02-04T02:11:45;10.90;95.00
47546;DHT22;50104;52.002;4.688;2024-02-04T02:16:46;10.90;95.00
47546;DHT22;50104;52.002;4.688;2024-02-04T02:21:50;10.90;94.90
47546;DHT22;50104;52.002;4.688;2024-02-04T02:26:54;10.90;94.90
47546;DHT22;50104;52.002;4.688;2024-02-04T02:31:57;10.90;94.80
47546;DHT22;50104;52.002;4.688;2024-02-04T02:42:29;10.90;94.60
47546;DHT22;50104;52.002;4.688;2024-02-04T02:47:31;10.80;94.40
47546;DHT22;50104;52.002;4.688;2024-02-04T02:52:33;10.80;94.30
47546;DHT22;50104;52.002;4.688;2024-02-04T02:57:33;10.80;94.30
47546;DHT22;50104;52.002;4.688;2024-02-04T03:02:34;10.80;94.10
47546;DHT22;50104;52.002;4.688;2024-02-04T03:07:35;10.70;94.10
47546;DHT22;50104;52.002;4.688;2024-02-04T03:12:36;10.70;94.10
47546;DHT22;50104;52.002;4.688;2024-02-04T03:17:37;10.70;94.20
47546;DHT22;50104;52.002;4.688;2024-02-04T03:22:38;10.70;94.30
47546;DHT22;50104;52.002;4.688;2024-02-04T03:27:39;10.60;94.40
47546;DHT22;50104;52.002;4.688;2024-02-04T03:32:40;10.60;94.50
47546;DHT22;50104;52.002;4.688;2024-02-04T03:37:41;10.60;94.60
47546;DHT22;50104;52.002;4.688;2024-02-04T03:42:42;10.60;94.60
47546;DHT22;50104;52.002;4.688;2024-02-04T03:47:43;10.60;94.70
47546;DHT22;50104;52.002;4.688;2024-02-04T03:52:44;10.60;94.70
47546;DHT22;50104;52.002;4.688;2024-02-04T03:57:45;10.60;94.60
47546;DHT22;50104;52.002;4.688;2024-02-04T04:02:45;10.60;94.60
47546;DHT22;50104;52.002;4.688;2024-02-04T04:07:46;10.60;94.60
47546;DHT22;50104;52.002;4.688;2024-02-04T04:12:47;10.60;94.50
47546;DHT22;50104;52.002;4.688;2024-02-04T04:17:48;10.60;94.50
47546;DHT22;50104;52.002;4.688;2024-02-04T04:22:49;10.60;94.50
47546;DHT22;50104;52.002;4.688;2024-02-04T04:27:49;10.60;94.50
47546;DHT22;50104;52.002;4.688;2024-02-04T04:32:50;10.50;94.50
47546;DHT22;50104;52.002;4.688;2024-02-04T04:37:51;10.50;94.60
47546;DHT22;50104;52.002;4.688;2024-02-04T04:42:53;10.50;94.70
47546;DHT22;50104;52.002;4.688;2024-02-04T04:47:54;10.50;94.90
47546;DHT22;50104;52.002;4.688;2024-02-04T04:52:54;10.50;94.80
47546;DHT22;50104;52.002;4.688;2024-02-04T04:57:55;10.50;94.90
47546;DHT22;50104;52.002;4.688;2024-02-04T05:02:56;10.50;94.90
47546;DHT22;50104;52.002;4.688;2024-02-04T05:07:57;10.40;95.00
47546;DHT22;50104;52.002;4.688;2024-02-04T05:12:58;10.40;95.10
47546;DHT22;50104;52.002;4.688;2024-02-04T05:17:59;10.40;95.10
47546;DHT22;50104;52.002;4.688;2024-02-04T05:23:00;10.40;95.20
47546;DHT22;50104;52.002;4.688;2024-02-04T05:28:00;10.40;95.30
47546;DHT22;50104;52.002;4.688;2024-02-04T05:33:01;10.40;95.30
47546;DHT22;50104;52.002;4.688;2024-02-04T05:38:02;10.40;95.40
47546;DHT22;50104;52.002;4.688;2024-02-04T05:43:03;10.40;95.40
47546;DHT22;50104;52.002;4.688;2024-02-04T05:48:08;10.40;95.50
47546;DHT22;50104;52.002;4.688;2024-02-04T05:53:09;10.40;95.50
47546;DHT22;50104;52.002;4.688;2024-02-04T05:58:10;10.40;95.50
47546;DHT22;50104;52.002;4.688;2024-02-04T06:03:11;10.40;95.30
47546;DHT22;50104;52.002;4.688;2024-02-04T06:08:13;10.40;95.40
47546;DHT22;50104;52.002;4.688;2024-02-04T06:13:14;10.40;95.50
47546;DHT22;50104;52.002;4.688;2024-02-04T06:18:15;10.40;95.50
47546;DHT22;50104;52.002;4.688;2024-02-04T06:23:16;10.30;95.50
47546;DHT22;50104;52.002;4.688;2024-02-04T06:28:17;10.30;95.70
47546;DHT22;50104;52.002;4.688;2024-02-04T06:33:17;10.30;95.80
47546;DHT22;50104;52.002;4.688;2024-02-04T06:38:18;10.30;96.10
47546;DHT22;50104;52.002;4.688;2024-02-04T06:43:19;10.30;96.20
47546;DHT22;50104;52.002;4.688;2024-02-04T06:48:20;10.30;96.30
47546;DHT22;50104;52.002;4.688;2024-02-04T06:53:21;10.40;96.20
47546;DHT22;50104;52.002;4.688;2024-02-04T06:58:21;10.40;96.30
47546;DHT22;50104;52.002;4.688;2024-02-04T07:03:22;10.40;96.30
47546;DHT22;50104;52.002;4.688;2024-02-04T07:08:23;10.40;96.20
47546;DHT22;50104;52.002;4.688;2024-02-04T07:13:24;10.40;96.10
47546;DHT22;50104;52.002;4.688;2024-02-04T07:18:25;10.40;96.00
47546;DHT22;50104;52.002;4.688;2024-02-04T07:23:25;10.50;95.80
47546;DHT22;50104;52.002;4.688;2024-02-04T07:28:26;10.50;95.90
47546;DHT22;50104;52.002;4.688;2024-02-04T07:33:27;10.50;95.90
47546;DHT22;50104;52.002;4.688;2024-02-04T07:38:28;10.50;95.90
47546;DHT22;50104;52.002;4.688;2024-02-04T07:43:29;10.50;96.00
47546;DHT22;50104;52.002;4.688;2024-02-04T07:48:30;10.50;96.20
47546;DHT22;50104;52.002;4.688;2024-02-04T07:53:31;10.50;96.30
47546;DHT22;50104;52.002;4.688;2024-02-04T07:58:33;10.50;96.50
47546;DHT22;50104;52.002;4.688;2024-02-04T08:03:34;10.50;96.60
47546;DHT22;50104;52.002;4.688;2024-02-04T08:08:34;10.50;96.50
47546;DHT22;50104;52.002;4.688;2024-02-04T08:13:35;10.50;96.40
47546;DHT22;50104;52.002;4.688;2024-02-04T08:18:36;10.50;96.50
47546;DHT22;50104;52.002;4.688;2024-02-04T08:23:37;10.50;96.50
47546;DHT22;50104;52.002;4.688;2024-02-04T08:28:40;10.60;96.60
47546;DHT22;50104;52.002;4.688;2024-02-04T08:33:40;10.60;96.50
47546;DHT22;50104;52.002;4.688;2024-02-04T08:38:41;10.60;96.40
47546;DHT22;50104;52.002;4.688;2024-02-04T08:43:42;10.60;96.40
47546;DHT22;50104;52.002;4.688;2024-02-04T08:48:43;10.70;96.40
47546;DHT22;50104;52.002;4.688;2024-02-04T08:53:44;10.70;96.30
47546;DHT22;50104;52.002;4.688;2024-02-04T08:58:45;10.70;96.40
47546;DHT22;50104;52.002;4.688;2024-02-04T09:03:46;10.70;96.40
47546;DHT22;50104;52.002;4.688;2024-02-04T09:08:47;10.70;96.40
47546;DHT22;50104;52.002;4.688;2024-02-04T09:13:48;10.70;96.30
47546;DHT22;50104;52.002;4.688;2024-02-04T09:18:49;10.80;96.30
47546;DHT22;50104;52.002;4.688;2024-02-04T09:23:50;10.80;96.20
47546;DHT22;50104;52.002;4.688;2024-02-04T09:28:51;10.80;96.10
47546;DHT22;50104;52.002;4.688;2024-02-04T09:33:52;10.80;96.10
47546;DHT22;50104;52.002;4.688;2024-02-04T09:38:53;10.90;96.00
47546;DHT22;50104;52.002;4.688;2024-02-04T09:43:56;10.90;95.90
47546;DHT22;50104;52.002;4.688;2024-02-04T09:48:59;10.90;95.80
47546;DHT22;50104;52.002;4.688;2024-02-04T09:54:04;10.90;95.70
47546;DHT22;50104;52.002;4.688;2024-02-04T09:59:07;10.90;95.60
47546;DHT22;50104;52.002;4.688;2024-02-04T10:04:08;11.00;95.50
47546;DHT22;50104;52.002;4.688;2024-02-04T10:09:09;11.00;95.60
47546;DHT22;50104;52.002;4.688;2024-02-04T10:14:10;11.00;95.60
47546;DHT22;50104;52.002;4.688;2024-02-04T10:19:11;11.00;95.60
47546;DHT22;50104;52.002;4.688;2024-02-04T10:24:12;10.90;95.70
47546;DHT22;50104;52.002;4.688;2024-02-04T10:29:13;10.90;95.90
47546;DHT22;50104;52.002;4.688;2024-02-04T10:34:14;10.90;96.10
47546;DHT22;50104;52.002;4.688;2024-02-04T10:39:15;10.90;96.20
47546;DHT22;50104;52.002;4.688;2024-02-04T10:44:23;10.90;96.30
47546;DHT22;50104;52.002;4.688;2024-02-04T10:49:26;10.90;96.40
47546;DHT22;50104;52.002;4.688;2024-02-04T10:54:28;10.90;96.50
47546;DHT22;50104;52.002;4.688;2024-02-04T10:59:31;10.90;96.50
47546;DHT22;50104;52.002;4.688;2024-02-04T11:04:34;10.90;96.40
47546;DHT22;50104;52.002;4.688;2024-02-04T11:09:36;10.90;96.50
47546;DHT22;50104;52.002;4.688;2024-02-04T11:14:39;11.00;96.60
47546;DHT22;50104;52.002;4.688;2024-02-04T11:19:56;11.00;96.60
47546;DHT22;50104;52.002;4.688;2024-02-04T11:30:35;11.10;96.60
47546;DHT22;50104;52.002;4.688;2024-02-04T11:35:36;11.10;96.50
47546;DHT22;50104;52.002;4.688;2024-02-04T11:40:37;11.10;96.40
47546;DHT22;50104;52.002;4.688;2024-02-04T11:45:42;11.10;96.40
47546;DHT22;50104;52.002;4.688;2024-02-04T11:50:52;11.20;96.50
47546;DHT22;50104;52.002;4.688;2024-02-04T11:55:53;11.30;96.40
47546;DHT22;50104;52.002;4.688;2024-02-04T12:00:56;11.30;96.30
47546;DHT22;50104;52.002;4.688;2024-02-04T12:05:58;11.30;95.90
47546;DHT22;50104;52.002;4.688;2024-02-04T12:11:00;11.40;95.70
47546;DHT22;50104;52.002;4.688;2024-02-04T12:16:02;11.40;95.60
47546;DHT22;50104;52.002;4.688;2024-02-04T12:21:03;11.40;95.50
47546;DHT22;50104;52.002;4.688;2024-02-04T12:26:04;11.50;95.30
47546;DHT22;50104;52.002;4.688;2024-02-04T12:31:06;11.50;94.80
47546;DHT22;50104;52.002;4.688;2024-02-04T12:36:07;11.50;94.60
47546;DHT22;50104;52.002;4.688;2024-02-04T12:41:12;11.50;94.90
47546;DHT22;50104;52.002;4.688;2024-02-04T12:46:13;11.50;95.00
47546;DHT22;50104;52.002;4.688;2024-02-04T12:51:32;11.50;95.00
47546;DHT22;50104;52.002;4.688;2024-02-04T12:56:44;11.50;94.80
47546;DHT22;50104;52.002;4.688;2024-02-04T13:01:57;11.60;94.60
47546;DHT22;50104;52.002;4.688;2024-02-04T13:06:59;11.60;94.60
47546;DHT22;50104;52.002;4.688;2024-02-04T13:12:03;11.60;94.60
47546;DHT22;50104;52.002;4.688;2024-02-04T13:17:05;11.60;94.50
47546;DHT22;50104;52.002;4.688;2024-02-04T13:22:06;11.60;94.30
47546;DHT22;50104;52.002;4.688;2024-02-04T13:27:10;11.60;94.30
47546;DHT22;50104;52.002;4.688;2024-02-04T13:32:11;11.60;94.10
47546;DHT22;50104;52.002;4.688;2024-02-04T13:37:12;11.60;94.10
47546;DHT22;50104;52.002;4.688;2024-02-04T13:42:13;11.60;94.20
47546;DHT22;50104;52.002;4.688;2024-02-04T13:47:13;11.60;94.20
47546;DHT22;50104;52.002;4.688;2024-02-04T13:52:14;11.60;94.20
47546;DHT22;50104;52.002;4.688;2024-02-04T13:57:15;11.60;94.20
47546;DHT22;50104;52.002;4.688;2024-02-04T14:02:16;11.60;94.20
47546;DHT22;50104;52.002;4.688;2024-02-04T14:07:17;11.70;94.00
47546;DHT22;50104;52.002;4.688;2024-02-04T14:12:17;11.70;93.90
47546;DHT22;50104;52.002;4.688;2024-02-04T14:17:19;11.70;93.70
47546;DHT22;50104;52.002;4.688;2024-02-04T14:22:20;11.70;93.60
47546;DHT22;50104;52.002;4.688;2024-02-04T14:27:23;11.80;93.50
47546;DHT22;50104;52.002;4.688;2024-02-04T14:32:24;11.80;93.50
47546;DHT22;50104;52.002;4.688;2024-02-04T14:37:25;11.80;93.30
47546;DHT22;50104;52.002;4.688;2024-02-04T14:42:26;11.80;93.20
47546;DHT22;50104;52.002;4.688;2024-02-04T14:47:27;11.70;93.20
47546;DHT22;50104;52.002;4.688;2024-02-04T14:52:28;11.70;93.20
47546;DHT22;50104;52.002;4.688;2024-02-04T14:57:29;11.70;93.20
47546;DHT22;50104;52.002;4.688;2024-02-04T15:02:30;11.70;93.40
47546;DHT22;50104;52.002;4.688;2024-02-04T15:07:31;11.70;93.40
47546;DHT22;50104;52.002;4.688;2024-02-04T15:12:32;11.70;93.20
47546;DHT22;50104;52.002;4.688;2024-02-04T15:17:34;11.70;93.10
47546;DHT22;50104;52.002;4.688;2024-02-04T15:22:35;11.70;93.10
47546;DHT22;50104;52.002;4.688;2024-02-04T15:27:36;11.70;93.10
47546;DHT22;50104;52.002;4.688;2024-02-04T15:32:38;11.80;93.20
47546;DHT22;50104;52.002;4.688;2024-02-04T15:37:39;11.80;93.00
47546;DHT22;50104;52.002;4.688;2024-02-04T15:42:41;11.80;93.00
47546;DHT22;50104;52.002;4.688;2024-02-04T15:47:49;11.80;93.00
47546;DHT22;50104;52.002;4.688;2024-02-04T15:52:54;11.80;92.80
47546;DHT22;50104;52.002;4.688;2024-02-04T15:57:59;11.80;92.80
47546;DHT22;50104;52.002;4.688;2024-02-04T16:03:00;11.80;92.70
47546;DHT22;50104;52.002;4.688;2024-02-04T16:08:02;11.80;92.70
47546;DHT22;50104;52.002;4.688;2024-02-04T16:13:03;11.70;92.60
47546;DHT22;50104;52.002;4.688;2024-02-04T16:18:10;11.70;92.70
47546;DHT22;50104;52.002;4.688;2024-02-04T16:23:11;11.70;92.70
47546;DHT22;50104;52.002;4.688;2024-02-04T16:28:12;11.70;92.60
47546;DHT22;50104;52.002;4.688;2024-02-04T16:33:13;11.70;92.70
47546;DHT22;50104;52.002;4.688;2024-02-04T16:38:14;11.60;92.70
47546;DHT22;50104;52.002;4.688;2024-02-04T16:43:15;11.70;92.70
47546;DHT22;50104;52.002;4.688;2024-02-04T16:48:15;11.60;92.70
47546;DHT22;50104;52.002;4.688;2024-02-04T16:53:17;11.60;92.70
47546;DHT22;50104;52.002;4.688;2024-02-04T16:58:20;11.60;92.70
47546;DHT22;50104;52.002;4.688;2024-02-04T17:03:21;11.50;92.80
47546;DHT22;50104;52.002;4.688;2024-02-04T17:08:22;11.50;92.90
47546;DHT22;50104;52.002;4.688;2024-02-04T17:13:23;11.50;92.90
47546;DHT22;50104;52.002;4.688;2024-02-04T17:18:38;11.50;93.00
47546;DHT22;50104;52.002;4.688;2024-02-04T17:24:17;11.50;93.00
47546;DHT22;50104;52.002;4.688;2024-02-04T17:29:19;11.50;93.10
47546;DHT22;50104;52.002;4.688;2024-02-04T17:34:21;11.40;93.20
47546;DHT22;50104;52.002;4.688;2024-02-04T17:39:22;11.40;93.40
47546;DHT22;50104;52.002;4.688;2024-02-04T17:44:46;11.40;93.40
47546;DHT22;50104;52.002;4.688;2024-02-04T17:49:47;11.40;93.60
47546;DHT22;50104;52.002;4.688;2024-02-04T17:54:49;11.40;93.70
47546;DHT22;50104;52.002;4.688;2024-02-04T17:59:51;11.40;93.80
47546;DHT22;50104;52.002;4.688;2024-02-04T18:04:53;11.40;93.80
47546;DHT22;50104;52.002;4.688;2024-02-04T18:09:55;11.40;93.80
47546;DHT22;50104;52.002;4.688;2024-02-04T18:14:55;11.40;93.80
47546;DHT22;50104;52.002;4.688;2024-02-04T18:19:56;11.40;93.70
47546;DHT22;50104;52.002;4.688;2024-02-04T18:24:57;11.40;93.70
47546;DHT22;50104;52.002;4.688;2024-02-04T18:29:58;11.40;93.70
47546;DHT22;50104;52.002;4.688;2024-02-04T18:34:59;11.50;93.70
47546;DHT22;50104;52.002;4.688;2024-02-04T18:40:00;11.40;93.70
47546;DHT22;50104;52.002;4.688;2024-02-04T18:45:01;11.50;93.70
47546;DHT22;50104;52.002;4.688;2024-02-04T18:50:03;11.50;93.40
47546;DHT22;50104;52.002;4.688;2024-02-04T18:55:04;11.50;93.40
47546;DHT22;50104;52.002;4.688;2024-02-04T19:00:06;11.50;93.40
47546;DHT22;50104;52.002;4.688;2024-02-04T19:05:09;11.40;93.20
47546;DHT22;50104;52.002;4.688;2024-02-04T19:10:10;11.40;93.10
47546;DHT22;50104;52.002;4.688;2024-02-04T19:15:12;11.40;93.10
47546;DHT22;50104;52.002;4.688;2024-02-04T19:20:13;11.40;93.00
47546;DHT22;50104;52.002;4.688;2024-02-04T19:25:15;11.40;93.10
47546;DHT22;50104;52.002;4.688;2024-02-04T19:30:20;11.30;93.20
47546;DHT22;50104;52.002;4.688;2024-02-04T19:35:24;11.30;93.30
47546;DHT22;50104;52.002;4.688;2024-02-04T19:40:26;11.30;93.30
47546;DHT22;50104;52.002;4.688;2024-02-04T19:45:27;11.30;93.40
47546;DHT22;50104;52.002;4.688;2024-02-04T19:50:28;11.30;93.50
47546;DHT22;50104;52.002;4.688;2024-02-04T19:55:29;11.30;93.60
47546;DHT22;50104;52.002;4.688;2024-02-04T20:00:30;11.30;93.60
47546;DHT22;50104;52.002;4.688;2024-02-04T20:05:30;11.30;93.60
47546;DHT22;50104;52.002;4.688;2024-02-04T20:10:31;11.30;93.60
47546;DHT22;50104;52.002;4.688;2024-02-04T20:15:32;11.30;93.50
47546;DHT22;50104;52.002;4.688;2024-02-04T20:20:33;11.30;93.50
47546;DHT22;50104;52.002;4.688;2024-02-04T20:25:34;11.30;93.40
47546;DHT22;50104;52.002;4.688;2024-02-04T20:30:35;11.20;93.30
47546;DHT22;50104;52.002;4.688;2024-02-04T20:35:36;11.20;93.40
47546;DHT22;50104;52.002;4.688;2024-02-04T20:40:37;11.20;93.40
47546;DHT22;50104;52.002;4.688;2024-02-04T20:45:39;11.20;93.40
47546;DHT22;50104;52.002;4.688;2024-02-04T20:50:41;11.20;93.40
47546;DHT22;50104;52.002;4.688;2024-02-04T20:55:42;11.20;93.40
47546;DHT22;50104;52.002;4.688;2024-02-04T21:00:43;11.20;93.40
47546;DHT22;50104;52.002;4.688;2024-02-04T21:05:44;11.20;93.50
47546;DHT22;50104;52.002;4.688;2024-02-04T21:10:45;11.20;93.50
47546;DHT22;50104;52.002;4.688;2024-02-04T21:15:45;11.20;93.40
47546;DHT22;50104;52.002;4.688;2024-02-04T21:20:46;11.20;93.30
47546;DHT22;50104;52.002;4.688;2024-02-04T21:25:47;11.20;93.30
47546;DHT22;50104;52.002;4.688;2024-02-04T21:30:48;11.20;93.30
47546;DHT22;50104;52.002;4.688;2024-02-04T21:35:49;11.20;93.20
47546;DHT22;50104;52.002;4.688;2024-02-04T21:40:50;11.20;93.20
47546;DHT22;50104;52.002;4.688;2024-02-04T21:45:50;11.20;93.10
47546;DHT22;50104;52.002;4.688;2024-02-04T21:50:51;11.20;93.00
47546;DHT22;50104;52.002;4.688;2024-02-04T21:55:52;11.20;93.00
47546;DHT22;50104;52.002;4.688;2024-02-04T22:00:54;11.20;92.90
47546;DHT22;50104;52.002;4.688;2024-02-04T22:05:55;11.20;92.90
47546;DHT22;50104;52.002;4.688;2024-02-04T22:10:56;11.20;92.90
47546;DHT22;50104;52.002;4.688;2024-02-04T22:15:57;11.20;92.90
47546;DHT22;50104;52.002;4.688;2024-02-04T22:20:57;11.10;92.80
47546;DHT22;50104;52.002;4.688;2024-02-04T22:25:58;11.10;92.80
47546;DHT22;50104;52.002;4.688;2024-02-04T22:30:59;11.10;92.60
47546;DHT22;50104;52.002;4.688;2024-02-04T22:36:00;11.10;92.60
47546;DHT22;50104;52.002;4.688;2024-02-04T22:41:01;11.10;92.60
47546;DHT22;50104;52.002;4.688;2024-02-04T22:46:03;11.10;92.40
47546;DHT22;50104;52.002;4.688;2024-02-04T22:51:04;11.10;92.30
47546;DHT22;50104;52.002;4.688;2024-02-04T22:56:05;11.00;92.40
47546;DHT22;50104;52.002;4.688;2024-02-04T23:01:08;11.00;92.30
47546;DHT22;50104;52.002;4.688;2024-02-04T23:06:09;11.00;92.40
47546;DHT22;50104;52.002;4.688;2024-02-04T23:11:09;10.90;92.40
47546;DHT22;50104;52.002;4.688;2024-02-04T23:16:10;10.90;92.60
47546;DHT22;50104;52.002;4.688;2024-02-04T23:21:11;10.90;92.60
47546;DHT22;50104;52.002;4.688;2024-02-04T23:26:12;10.90;92.60
47546;DHT22;50104;52.002;4.688;2024-02-04T23:31:13;10.90;92.70
47546;DHT22;50104;52.002;4.688;2024-02-04T23:36:16;10.90;92.70
47546;DHT22;50104;52.002;4.688;2024-02-04T23:41:17;10.90;92.70
47546;DHT22;50104;52.002;4.688;2024-02-04T23:46:18;10.90;92.70
47546;DHT22;50104;52.002;4.688;2024-02-04T23:51:19;10.80;92.70
47546;DHT22;50104;52.002;4.688;2024-02-04T23:56:19;10.80;92.60
